Terminal Aerodrome Forecast
Issued by NWS

Home | Current Version | Previous Version | Graphics & Text | Print | Product List | Glossary On
Versions: 1 2 3 4 5 6 7 8 9 10 11 12 13 14 15 16 17
556
FTUS43 KBIS 091130
TAFDIK
TAF
KDIK 091130Z 0912/1012 27004KT P6SM OVC080
     FM091700 31007KT 3SM -SN BR OVC015
     FM092100 31005KT P6SM -RASN OVC015
     FM100000 18004KT P6SM OVC035
     FM100700 24006KT P6SM OVC050=

USA.gov is the U.S. government's official web portal to all federal, state and local government web resources and services.